Аэропорт: Байкал. Улан-Удэ

ICAO: UIUU

METAR:
2019-07-24 01:00:00
UIUU 240100Z 08008MPS 9999 SCT044CB 21/12 Q1004 WS R08 R08/CLRD60 NOSIG RMK QFE708/0945
METAR:
2019-07-23 22:30:00
TAF AMD UIUU 232230Z 2322/2421 06008G13MPS 9999 SCT030CB TEMPO 2400/2415 36006MPS